createdAt,value
2019-04-05T00:01:34.422Z,100159.56
2019-04-05T00:04:03.464Z,100174.59
2019-04-05T00:06:32.494Z,100183.88
2019-04-05T00:09:01.204Z,100183.33
2019-04-05T00:11:30.228Z,100190.05
2019-04-05T00:13:59.045Z,100186.89
2019-04-05T00:16:27.887Z,100181.09
2019-04-05T00:18:56.820Z,100184.61
2019-04-05T00:21:25.801Z,100181.88
2019-04-05T00:23:54.515Z,100182.75
2019-04-05T00:26:23.296Z,100182.25
2019-04-05T00:28:52.403Z,100201.17
2019-04-05T00:31:21.363Z,100197.60
2019-04-05T00:33:51.713Z,100195.75
2019-04-05T00:36:20.432Z,100193.09
2019-04-05T00:38:49.139Z,100184.73
2019-04-05T00:41:17.923Z,100181.21
2019-04-05T00:43:47.077Z,100171.48
2019-04-05T00:46:15.782Z,100170.23
2019-04-05T00:48:44.859Z,100160.49
2019-04-05T00:51:13.577Z,100160.49
2019-04-05T00:53:42.443Z,100167.17
2019-04-05T00:56:11.517Z,100163.65
2019-04-05T00:58:40.682Z,100160.59
2019-04-05T01:01:09.883Z,100164.15
2019-04-05T01:06:40.453Z,100154.13
2019-04-05T01:09:09.468Z,100155.05
2019-04-05T01:11:38.426Z,100161.22
2019-04-05T01:14:07.212Z,100169.13
2019-04-05T01:16:36.325Z,100172.69
2019-04-05T01:19:05.306Z,100176.66
2019-04-05T01:21:39.417Z,100185.06
2019-04-05T01:24:09.634Z,100189.95
2019-04-05T01:26:41.504Z,100200.09
2019-04-05T01:29:10.701Z,100198.77
2019-04-05T01:31:39.539Z,100189.91
2019-04-05T01:34:08.563Z,100189.45
2019-04-05T01:36:37.272Z,100198.73
2019-04-05T01:39:06.946Z,100197.91
2019-04-05T01:41:36.740Z,100204.53
2019-04-05T01:44:05.610Z,100204.98
2019-04-05T01:46:34.965Z,100205.40
2019-04-05T01:49:04.013Z,100200.59
2019-04-05T01:51:33.314Z,100202.80
2019-04-05T01:54:02.685Z,100206.27
2019-04-05T01:56:31.812Z,100196.99
2019-04-05T01:59:00.855Z,100194.34
2019-04-05T02:01:30.248Z,100215.50
2019-04-05T02:03:59.383Z,100217.66
2019-04-05T02:06:28.670Z,100215.42
2019-04-05T02:08:57.539Z,100218.08
2019-04-05T02:11:35.287Z,100216.30
2019-04-05T02:14:04.251Z,100212.85
2019-04-05T02:16:33.265Z,100215.59
2019-04-05T02:19:02.371Z,100215.22
2019-04-05T02:21:31.401Z,100218.28
2019-04-05T02:24:00.514Z,100151.67
2019-04-05T02:26:29.552Z,100210.45
2019-04-05T02:28:58.658Z,100211.32
2019-04-05T02:31:27.695Z,100206.52
2019-04-05T02:33:56.482Z,100208.34
2019-04-05T02:36:25.363Z,100206.69
2019-04-05T02:38:54.398Z,100185.95
2019-04-05T02:41:24.944Z,100188.55
2019-04-05T02:43:56.555Z,100188.64
2019-04-05T02:46:26.633Z,100189.59
2019-04-05T02:48:57.202Z,100183.05
2019-04-05T02:51:28.167Z,100184.38
2019-04-05T02:53:58.677Z,100185.70
2019-04-05T02:59:43.728Z,100180.48
2019-04-05T03:02:12.684Z,100174.94
2019-04-05T03:04:42.129Z,100157.80
2019-04-05T03:07:11.253Z,100156.97
2019-04-05T03:09:40.606Z,100150.39
2019-04-05T03:12:09.718Z,100153.08
2019-04-05T03:14:40.255Z,100152.27
2019-04-05T03:17:11.399Z,100158.95
2019-04-05T03:19:41.590Z,100165.66
2019-04-05T03:22:13.628Z,100176.30
2019-04-05T03:24:46.408Z,100183.45
2019-04-05T03:27:23.440Z,100196.70
2019-04-05T03:29:53.440Z,100210.28
2019-04-05T03:32:22.866Z,100215.53
2019-04-05T03:34:52.331Z,100214.63
2019-04-05T03:37:22.208Z,100214.20
2019-04-05T03:39:51.586Z,100213.30
2019-04-05T03:42:21.034Z,100212.39
2019-04-05T03:44:50.238Z,100206.11
2019-04-05T03:47:19.583Z,100216.66
2019-04-05T03:49:48.752Z,100220.59
2019-04-05T03:52:17.528Z,100217.90
2019-04-05T03:54:47.576Z,100230.20
2019-04-05T03:57:17.073Z,100236.03
2019-04-05T03:59:45.860Z,100239.55
2019-04-05T04:02:14.957Z,100247.83
2019-04-05T04:04:43.741Z,100252.63
2019-04-05T04:07:13.236Z,100252.52
2019-04-05T04:09:41.970Z,100256.41
2019-04-05T04:12:11.267Z,100252.39
2019-04-05T04:14:40.566Z,100259.35
2019-04-05T04:17:12.569Z,100259.92
2019-04-05T04:19:40.908Z,100266.51
2019-04-05T04:22:28.057Z,100269.50
2019-04-05T04:24:57.141Z,100263.24
2019-04-05T04:27:26.846Z,100263.66
2019-04-05T04:29:56.042Z,100264.45
2019-04-05T04:32:24.917Z,100273.23
2019-04-05T04:34:55.276Z,100274.55
2019-04-05T04:37:24.541Z,100276.30
2019-04-05T04:39:54.959Z,100264.83
2019-04-05T04:42:24.911Z,100271.41
2019-04-05T04:44:54.521Z,100274.52
2019-04-05T04:47:26.919Z,100263.05
2019-04-05T04:49:57.945Z,100273.14
2019-04-05T04:52:31.215Z,100273.52
2019-04-05T04:54:59.660Z,100274.84
2019-04-05T04:57:29.019Z,100284.53
2019-04-05T04:59:58.319Z,100279.69
2019-04-05T05:02:27.336Z,100273.89
2019-04-05T05:04:56.554Z,100273.02
2019-04-05T05:07:25.783Z,100275.63
2019-04-05T05:09:54.874Z,100272.07
2019-04-05T05:12:25.219Z,100275.59
2019-04-05T05:14:54.806Z,100291.08
2019-04-05T05:17:23.749Z,100286.19
2019-04-05T05:19:53.044Z,100283.09
2019-04-05T05:22:21.907Z,100290.16
2019-04-05T05:24:50.839Z,100293.20
2019-04-05T05:27:20.085Z,100291.37
2019-04-05T05:29:49.252Z,100299.70
2019-04-05T05:32:18.602Z,100299.66
2019-04-05T05:34:47.361Z,100293.82
2019-04-05T05:37:16.375Z,100299.13
2019-04-05T05:39:45.609Z,100301.73
2019-04-05T05:42:14.755Z,100294.65
2019-04-05T05:44:43.619Z,100286.12
2019-04-05T05:47:12.681Z,100296.68
2019-04-05T05:49:41.704Z,100292.70
2019-04-05T05:52:11.298Z,100292.62
2019-04-05T05:54:40.282Z,100300.04
2019-04-05T05:57:09.321Z,100297.80
2019-04-05T05:59:38.040Z,100299.08
2019-04-05T06:02:07.328Z,100306.45
2019-04-05T06:04:36.715Z,100316.98
2019-04-05T06:07:05.593Z,100312.59
2019-04-05T06:09:34.534Z,100320.45
2019-04-05T06:12:03.254Z,100319.97
2019-04-05T06:14:32.060Z,100320.30
2019-04-05T06:17:01.004Z,100320.62
2019-04-05T06:19:30.178Z,100318.39
2019-04-05T06:21:58.886Z,100306.36
2019-04-05T06:24:27.845Z,100301.39
2019-04-05T06:26:56.898Z,100302.22
2019-04-05T06:29:25.611Z,100301.34
2019-04-05T06:31:54.315Z,100311.05
2019-04-05T06:34:23.225Z,100306.56
2019-04-05T06:36:51.952Z,100313.61
2019-04-05T06:39:21.137Z,100315.31
2019-04-05T06:41:49.870Z,100323.39
2019-04-05T06:44:18.679Z,100322.48
2019-04-05T06:46:47.388Z,100316.64
2019-04-05T06:49:16.334Z,100315.63
2019-04-05T06:51:45.702Z,100317.37
2019-04-05T06:54:14.399Z,100207.34
2019-04-05T06:56:43.355Z,100321.13
2019-04-05T06:59:12.066Z,100329.47
2019-04-05T07:01:41.040Z,100333.00
2019-04-05T07:04:10.009Z,100339.58
2019-04-05T07:06:38.953Z,100335.19
2019-04-05T07:09:08.088Z,100338.21
2019-04-05T07:11:36.897Z,100344.72
2019-04-05T07:14:05.981Z,100345.86
2019-04-05T07:16:34.993Z,100356.77
2019-04-05T07:19:04.259Z,100347.43
2019-04-05T07:21:33.209Z,100344.66
2019-04-05T07:24:02.184Z,100346.71
2019-04-05T07:26:31.144Z,100344.70
2019-04-05T07:29:00.103Z,100348.55
2019-04-05T07:31:29.063Z,100358.12
2019-04-05T07:33:58.190Z,100368.98
2019-04-05T07:36:27.232Z,100368.34
2019-04-05T07:38:55.962Z,100371.77
2019-04-05T07:41:24.928Z,100360.97
2019-04-05T07:43:53.914Z,100368.20
2019-04-05T07:46:22.910Z,100368.07
2019-04-05T07:48:51.863Z,100377.91
2019-04-05T07:51:22.771Z,100369.35
2019-04-05T07:53:51.336Z,100365.95
2019-04-05T07:56:20.371Z,100368.79
2019-04-05T07:58:49.230Z,100359.12
2019-04-05T08:01:18.229Z,100357.72
2019-04-05T08:03:47.207Z,100358.20
2019-04-05T08:06:16.843Z,100354.89
2019-04-05T08:09:07.765Z,100363.27
2019-04-05T08:11:38.133Z,100365.63
2019-04-05T08:14:07.376Z,100373.02
2019-04-05T08:16:36.417Z,100369.88
2019-04-05T08:19:05.604Z,100372.80
2019-04-05T08:21:34.559Z,100374.48
2019-04-05T08:24:03.616Z,100386.27
2019-04-05T08:26:32.743Z,100384.88
2019-04-05T08:29:01.643Z,100380.38
2019-04-05T08:31:30.581Z,100385.46
2019-04-05T08:34:00.812Z,100386.55
2019-04-05T08:36:32.597Z,100391.10
2019-04-05T08:39:00.120Z,100395.17
2019-04-05T08:41:29.173Z,100396.31
2019-04-05T08:43:58.043Z,100396.13
2019-04-05T08:46:26.844Z,100399.70
2019-04-05T08:48:55.689Z,100402.36
2019-04-05T08:51:24.475Z,100398.38
2019-04-05T08:53:53.920Z,100400.79
2019-04-05T08:56:22.868Z,100389.91
2019-04-05T08:58:51.597Z,100388.73
2019-04-05T09:01:20.607Z,100390.23
2019-04-05T09:03:49.726Z,100395.40
2019-04-05T09:06:18.631Z,100390.28
2019-04-05T09:08:47.658Z,100395.23
2019-04-05T09:11:16.645Z,100389.92
2019-04-05T09:13:45.918Z,100385.92
2019-04-05T09:16:14.758Z,100392.69
2019-04-05T09:18:43.459Z,100386.59
2019-04-05T09:21:12.418Z,100380.26
2019-04-05T09:23:41.395Z,100381.84
2019-04-05T09:26:10.488Z,100385.30
2019-04-05T09:28:40.086Z,100387.52
2019-04-05T09:31:09.115Z,100381.98
2019-04-05T09:33:38.252Z,100383.06
2019-04-05T09:36:07.457Z,100379.73
2019-04-05T09:38:36.420Z,100372.66
2019-04-05T09:41:05.632Z,100377.73
2019-04-05T09:43:35.128Z,100375.59
2019-04-05T09:46:04.217Z,100380.92
2019-04-05T09:48:33.244Z,100380.58
2019-04-05T09:51:02.225Z,100379.45
2019-04-05T09:53:31.319Z,100382.19
2019-04-05T09:56:00.728Z,100378.18
2019-04-05T09:58:29.676Z,100378.31
2019-04-05T10:00:58.743Z,100383.56
2019-04-05T10:03:27.552Z,100384.22
2019-04-05T10:05:56.748Z,100373.29
2019-04-05T10:08:25.553Z,100385.57
2019-04-05T10:10:54.985Z,100380.84
2019-04-05T10:13:23.692Z,100377.09
2019-04-05T10:15:52.727Z,100381.02
2019-04-05T10:18:21.688Z,100388.00
2019-04-05T10:20:50.655Z,100386.37
2019-04-05T10:23:19.802Z,100385.87
2019-04-05T10:25:48.726Z,100378.67
2019-04-05T10:28:17.733Z,100385.20
2019-04-05T10:30:46.985Z,100393.49
2019-04-05T10:33:15.795Z,100387.69
2019-04-05T10:35:44.862Z,100391.52
2019-04-05T10:38:13.830Z,100402.55
2019-04-05T10:40:42.847Z,100414.59
2019-04-05T10:43:11.818Z,100415.02
2019-04-05T10:45:40.976Z,100419.53
2019-04-05T10:48:10.090Z,100408.83
2019-04-05T10:50:39.023Z,100412.23
2019-04-05T10:53:08.252Z,100407.05
2019-04-05T10:55:37.069Z,100406.88
2019-04-05T10:58:06.356Z,100409.70
2019-04-05T11:00:35.407Z,100407.25
2019-04-05T11:03:04.197Z,100411.95
2019-04-05T11:05:33.292Z,100406.67
2019-04-05T11:08:02.254Z,100407.74
2019-04-05T11:10:30.961Z,100397.90
2019-04-05T11:12:59.662Z,100407.20
2019-04-05T11:15:28.819Z,100400.69
2019-04-05T11:17:59.118Z,100408.28
2019-04-05T11:20:27.928Z,100411.89
2019-04-05T11:22:56.635Z,100407.39
2019-04-05T11:25:25.603Z,100406.51
2019-04-05T11:27:54.576Z,100409.70
2019-04-05T11:30:44.516Z,100408.99
2019-04-05T11:33:13.744Z,100411.31
2019-04-05T11:35:42.727Z,100411.48
2019-04-05T11:38:12.695Z,100407.54
2019-04-05T11:40:41.970Z,100403.14
2019-04-05T11:43:10.845Z,100395.94
2019-04-05T11:45:39.931Z,100402.19
2019-04-05T11:48:08.901Z,100407.25
2019-04-05T11:50:37.936Z,100401.50
2019-04-05T11:53:06.800Z,100404.45
2019-04-05T11:55:36.629Z,100404.38
2019-04-05T11:58:05.735Z,100413.66
2019-04-05T12:00:46.792Z,100414.09
2019-04-05T12:03:15.885Z,100413.17
2019-04-05T12:05:45.163Z,100413.17
2019-04-05T12:08:13.901Z,100409.08
2019-04-05T12:10:43.036Z,100412.50
2019-04-05T12:13:12.136Z,100410.35
2019-04-05T12:15:42.446Z,100409.73
2019-04-05T12:18:11.409Z,100407.47
2019-04-05T12:20:49.140Z,100406.18
2019-04-05T12:23:10.568Z,100404.06
2019-04-05T12:25:39.687Z,100399.54
2019-04-05T12:28:10.600Z,100394.60
2019-04-05T12:30:40.027Z,100396.50
2019-04-05T12:33:14.190Z,100402.13
2019-04-05T12:35:39.933Z,100398.11
2019-04-05T12:38:08.890Z,100398.70
2019-04-05T12:40:40.310Z,100401.55
2019-04-05T12:43:12.472Z,100404.70
2019-04-05T12:45:39.243Z,100404.50
2019-04-05T12:48:09.750Z,100398.68
2019-04-05T12:50:38.715Z,100402.14
2019-04-05T12:53:07.868Z,100405.09
2019-04-05T12:55:37.258Z,100407.97
2019-04-05T12:58:06.460Z,100408.09
2019-04-05T13:00:35.606Z,100414.27
2019-04-05T13:03:04.469Z,100415.60
2019-04-05T13:05:33.433Z,100419.23
2019-04-05T13:08:02.415Z,100430.14
2019-04-05T13:10:31.208Z,100433.76
2019-04-05T13:13:01.923Z,100431.30
2019-04-05T13:15:31.052Z,100433.95
2019-04-05T13:18:01.303Z,100433.95
2019-04-05T13:20:30.798Z,100437.69
2019-04-05T13:23:04.438Z,100437.05
2019-04-05T13:25:30.647Z,100434.44
2019-04-05T13:27:59.714Z,100433.20
2019-04-05T13:30:28.763Z,100438.75
2019-04-05T13:32:57.490Z,100437.19
2019-04-05T13:35:26.937Z,100434.36
2019-04-05T13:37:55.950Z,100436.13
2019-04-05T13:40:25.001Z,100436.48
2019-04-05T13:42:53.794Z,100439.44
2019-04-05T13:45:22.787Z,100438.80
2019-04-05T13:47:52.613Z,100432.86
2019-04-05T13:50:21.439Z,100434.98
2019-04-05T13:52:50.379Z,100430.17
2019-04-05T13:55:19.417Z,100436.09
2019-04-05T13:57:48.378Z,100433.17
2019-04-05T14:00:18.540Z,100430.50
2019-04-05T14:02:50.126Z,100430.61
2019-04-05T14:05:18.448Z,100429.55
2019-04-05T14:07:48.081Z,100424.78
2019-04-05T14:10:17.276Z,100430.19
2019-04-05T14:12:46.941Z,100427.47
2019-04-05T14:15:15.812Z,100426.95
2019-04-05T14:17:45.122Z,100420.57
2019-04-05T14:20:18.562Z,100422.15
2019-04-05T14:22:46.214Z,100424.94
2019-04-05T14:25:15.228Z,100429.63
2019-04-05T14:27:43.946Z,100426.28
2019-04-05T14:30:13.761Z,100420.57
2019-04-05T14:32:42.862Z,100418.17
2019-04-05T14:35:11.966Z,100422.70
2019-04-05T14:37:40.685Z,100419.55
2019-04-05T14:40:10.694Z,100414.61
2019-04-05T14:42:39.739Z,100413.30
2019-04-05T14:45:08.928Z,100417.32
2019-04-05T14:47:37.728Z,100413.80
2019-04-05T14:50:07.172Z,100417.03
2019-04-05T14:52:36.320Z,100419.31
2019-04-05T14:55:05.700Z,100409.90
2019-04-05T14:57:36.418Z,100415.65
2019-04-05T15:00:06.118Z,100411.44
2019-04-05T15:02:34.878Z,100414.16
2019-04-05T15:05:04.016Z,100414.16
2019-04-05T15:07:33.009Z,100410.45
2019-04-05T15:10:03.721Z,100413.59
2019-04-05T15:12:32.834Z,100419.70
2019-04-05T15:15:01.725Z,100410.37
2019-04-05T15:17:30.583Z,100415.45
2019-04-05T15:19:59.564Z,100412.93
2019-04-05T15:22:28.546Z,100410.92
2019-04-05T15:24:57.269Z,100417.57
2019-04-05T15:27:26.256Z,100421.46
2019-04-05T15:29:55.738Z,100417.41
2019-04-05T15:32:26.106Z,100424.56
2019-04-05T15:34:56.613Z,100415.55
2019-04-05T15:37:25.777Z,100408.06
2019-04-05T15:39:54.771Z,100409.87
2019-04-05T15:42:23.952Z,100414.44
2019-04-05T15:44:59.556Z,100408.28
2019-04-05T15:47:28.534Z,100408.28
2019-04-05T15:49:57.631Z,100421.42
2019-04-05T15:52:30.121Z,100422.94
2019-04-05T17:55:52.321Z,100418.47
2019-04-05T17:58:22.698Z,100418.47
2019-04-05T18:00:51.681Z,100528.11
2019-04-05T18:03:20.797Z,100523.25
2019-04-05T18:05:49.883Z,100534.92
2019-04-05T18:08:19.083Z,100527.77
2019-04-05T18:10:48.043Z,100533.19
2019-04-05T18:13:17.084Z,100540.36
2019-04-05T18:15:52.267Z,100543.03
2019-04-05T18:18:16.942Z,100535.50
2019-04-05T18:20:55.808Z,100548.36
2019-04-05T18:23:24.866Z,100544.36
2019-04-05T18:25:46.909Z,100551.43
2019-04-05T18:28:15.902Z,100556.23
2019-04-05T18:30:44.912Z,100558.91
2019-04-05T18:33:13.839Z,100559.63
2019-04-05T18:35:42.825Z,100563.63
2019-04-05T18:38:11.928Z,100565.83
2019-04-05T18:40:40.735Z,100568.08
2019-04-05T18:43:09.456Z,100563.27
2019-04-05T18:45:38.548Z,100576.54
2019-04-05T18:48:07.645Z,100570.75
2019-04-05T18:50:36.522Z,100574.89
2019-04-05T18:53:05.646Z,100567.41
2019-04-05T18:55:34.626Z,100570.48
2019-04-05T18:58:03.417Z,100569.16
2019-04-05T19:00:32.517Z,100571.41
2019-04-05T19:03:01.412Z,100576.39
2019-04-05T19:05:30.363Z,100578.65
2019-04-05T19:07:59.339Z,100460.70
2019-04-05T19:10:36.875Z,100573.88
2019-04-05T19:12:59.482Z,100573.88
2019-04-05T19:15:28.771Z,100573.06
2019-04-05T19:17:57.823Z,100570.86
2019-04-05T19:20:26.685Z,100574.45
2019-04-05T19:22:55.679Z,100582.98
2019-04-05T19:25:24.711Z,100581.31
2019-04-05T19:27:53.677Z,100583.10
2019-04-05T19:50:30.691Z,100601.33
2019-04-05T19:52:59.470Z,100602.77
2019-04-05T19:55:28.438Z,100606.35
2019-04-05T19:57:57.561Z,100607.68
2019-04-05T20:00:26.618Z,100610.89
2019-04-05T20:02:55.580Z,100610.08
2019-04-05T20:05:24.278Z,100614.07
2019-04-05T20:07:53.299Z,100616.41
2019-04-05T20:10:22.588Z,100613.80
2019-04-05T20:12:51.525Z,100610.32
2019-04-05T20:15:20.492Z,100614.45
2019-04-05T20:17:49.682Z,100621.62
2019-04-05T20:20:18.658Z,100620.81
2019-04-05T20:22:47.628Z,100623.47
2019-04-05T20:25:16.742Z,100619.89
2019-04-05T20:27:45.676Z,100626.08
2019-04-05T20:30:14.801Z,100626.65
2019-04-05T20:32:43.766Z,100630.18
2019-04-05T20:35:14.080Z,100635.59
2019-04-05T20:37:42.795Z,100634.88
2019-04-05T20:40:12.207Z,100640.30
2019-04-05T20:42:41.152Z,100639.20
2019-04-05T20:45:10.381Z,100645.91
2019-04-05T20:47:39.216Z,100650.77
2019-04-05T20:50:08.486Z,100640.59
2019-04-05T20:52:37.460Z,100645.04
2019-04-05T20:55:07.440Z,100653.08
2019-04-05T20:57:36.525Z,100652.75
2019-04-05T21:00:07.841Z,100660.33
2019-04-05T21:02:36.751Z,100651.52
2019-04-05T21:05:05.803Z,100656.97
2019-04-05T21:07:34.776Z,100662.25
2019-04-05T21:10:03.900Z,100654.72
2019-04-05T21:12:32.612Z,100660.78
2019-04-05T21:15:01.649Z,100655.92
2019-04-05T21:17:30.610Z,100657.77
2019-04-05T21:19:59.382Z,100661.75
2019-04-05T21:22:28.336Z,100657.77
2019-04-05T21:24:57.047Z,100661.89
2019-04-05T21:27:25.987Z,100657.95
2019-04-05T21:29:54.947Z,100661.66
2019-04-05T21:32:23.920Z,100663.50
2019-04-05T21:34:52.870Z,100667.95
2019-04-05T21:37:22.831Z,100667.95
2019-04-05T21:39:51.850Z,100662.80
2019-04-05T21:42:20.789Z,100663.90
2019-04-05T21:44:49.734Z,100661.34
2019-04-05T21:47:18.796Z,100668.16
2019-04-05T21:49:48.013Z,100673.66
2019-04-05T21:52:17.180Z,100666.81
2019-04-05T21:54:47.781Z,100672.86
2019-04-05T21:57:18.036Z,100666.14
2019-04-05T21:59:48.619Z,100667.27
2019-04-05T22:02:18.033Z,100668.49
2019-04-05T22:04:46.964Z,100665.63
2019-04-05T22:07:16.026Z,100676.09
2019-04-05T22:09:45.633Z,100686.05
2019-04-05T22:12:14.767Z,100681.03
2019-04-05T22:14:43.924Z,100683.02
2019-04-05T22:17:13.205Z,100689.44
2019-04-05T22:19:42.414Z,100697.11
2019-04-05T22:22:11.680Z,100701.17
2019-04-05T22:24:40.877Z,100702.47
2019-04-05T22:27:10.162Z,100695.25
2019-04-05T22:29:39.246Z,100703.55
2019-04-05T22:32:08.369Z,100711.41
2019-04-05T22:34:37.507Z,100710.88
2019-04-05T22:37:06.431Z,100707.69
2019-04-05T22:39:35.487Z,100706.31
2019-04-05T22:42:04.333Z,100699.67
2019-04-05T22:44:39.874Z,100696.52
2019-04-05T22:47:04.534Z,100697.80
2019-04-05T22:49:34.512Z,100707.03
2019-04-05T22:52:03.632Z,100705.70
2019-04-05T22:54:33.250Z,100710.52
2019-04-05T22:57:02.307Z,100713.17
2019-04-05T22:59:31.572Z,100709.19
2019-04-05T23:02:00.785Z,100710.93
2019-04-05T23:04:30.391Z,100710.02
2019-04-05T23:06:59.714Z,100715.21
2019-04-05T23:09:29.137Z,100714.30
2019-04-05T23:11:58.296Z,100710.31
2019-04-05T23:14:27.428Z,100707.36
2019-04-05T23:16:56.562Z,100704.74
2019-04-05T23:19:25.495Z,100704.74
2019-04-05T23:21:54.569Z,100705.20
2019-04-05T23:24:23.391Z,100705.20
2019-04-05T23:26:52.644Z,100707.10
2019-04-05T23:29:22.083Z,100700.50
2019-04-05T23:31:51.121Z,100697.43
2019-04-05T23:34:20.632Z,100697.93
2019-04-05T23:36:50.133Z,100697.22
2019-04-05T23:39:18.946Z,100689.86
2019-04-05T23:41:48.098Z,100702.01
2019-04-05T23:44:17.029Z,100701.83
2019-04-05T23:46:46.064Z,100709.53
2019-04-05T23:49:15.447Z,100695.12
2019-04-05T23:51:44.538Z,100699.78
2019-04-05T23:54:13.628Z,100688.03
2019-04-05T23:56:42.784Z,100691.74
2019-04-05T23:59:12.317Z,100678.59
